Time;durP1;ratioP1;P1;durP2;ratioP2;P2;SDS_P1;SDS_P2;PMS_P1;PMS_P2;Temp;Humidity;BMP_temperature;BMP_pressure;BME280_temperature;BME280_humidity;BME280_pressure;Samples;Min_cycle;Max_cycle;Signal;HPM_P1;HPM_P2
2023/07/07 02:01:38;;;;;;;5.70;3.55;;;;;;;;;;4548897;28;20071;-77
2023/07/07 02:04:05;;;;;;;9.68;3.35;;;;;;;;;;4267957;33;20063;-78
2023/07/07 02:06:31;;;;;;;7.60;3.40;;;;;;;;;;4268210;33;20045;-79
2023/07/07 02:08:58;;;;;;;10.43;3.75;;;;;;;;;;4267435;33;20451;-78
2023/07/07 02:11:24;;;;;;;3.60;3.30;;;;;;;;;;4265655;33;20060;-77
2023/07/07 02:13:50;;;;;;;7.30;3.40;;;;;;;;;;4267524;33;20079;-79
2023/07/07 02:16:16;;;;;;;4.57;3.42;;;;;;;;;;4267538;33;20045;-78
2023/07/07 02:18:48;;;;;;;6.47;3.28;;;;;;;;;;4245026;33;20130;-78
2023/07/07 02:21:15;;;;;;;7.70;3.55;;;;;;;;;;4250302;33;20039;-79
2023/07/07 02:23:41;;;;;;;5.60;3.62;;;;;;;;;;4247893;33;20042;-78
2023/07/07 02:26:07;;;;;;;6.57;3.12;;;;;;;;;;4249132;33;20042;-78
2023/07/07 02:28:35;;;;;;;9.63;3.87;;;;;;;;;;4252974;33;20068;-78
2023/07/07 02:31:00;;;;;;;11.27;3.30;;;;;;;;;;4253856;33;20449;-80
2023/07/07 02:33:36;;;;;;;5.82;2.92;;;;;;;;;;4264219;33;20431;-79
2023/07/07 02:36:03;;;;;;;5.53;3.40;;;;;;;;;;4239081;33;20072;-78
2023/07/07 02:38:31;;;;;;;6.07;3.53;;;;;;;;;;4238226;33;20420;-79
2023/07/07 02:40:57;;;;;;;5.45;2.80;;;;;;;;;;4239275;33;20070;-79
2023/07/07 02:43:24;;;;;;;6.18;3.62;;;;;;;;;;4239478;33;20479;-79
2023/07/07 02:45:50;;;;;;;11.32;3.37;;;;;;;;;;4223557;34;20201;-78
2023/07/07 02:48:18;;;;;;;13.07;3.85;;;;;;;;;;4225292;34;20222;-78
2023/07/07 02:50:52;;;;;;;4.60;3.33;;;;;;;;;;4215923;34;20075;-78
2023/07/07 02:53:27;;;;;;;12.60;3.40;;;;;;;;;;4197798;34;20075;-78
2023/07/07 02:55:53;;;;;;;15.60;3.28;;;;;;;;;;4195319;34;20168;-79
2023/07/07 02:58:20;;;;;;;7.90;3.30;;;;;;;;;;4197366;34;20755;-78
2023/07/07 03:00:46;;;;;;;7.43;4.35;;;;;;;;;;4197024;34;20048;-79
2023/07/07 03:03:12;;;;;;;8.35;3.30;;;;;;;;;;4196996;34;20047;-80
2023/07/07 03:05:39;;;;;;;11.45;3.92;;;;;;;;;;4197124;34;20441;-78
2023/07/07 03:08:06;;;;;;;17.37;3.22;;;;;;;;;;4221221;34;20054;-80
2023/07/07 03:10:34;;;;;;;7.47;2.85;;;;;;;;;;4224189;34;20039;-78
2023/07/07 03:13:01;;;;;;;7.05;3.60;;;;;;;;;;4224896;34;20054;-78
2023/07/07 03:15:29;;;;;;;10.82;3.90;;;;;;;;;;4232743;33;20038;-79
2023/07/07 03:17:56;;;;;;;11.80;3.58;;;;;;;;;;4265299;33;20073;-79
2023/07/07 03:20:26;;;;;;;13.60;2.90;;;;;;;;;;4268634;33;20440;-79
2023/07/07 03:22:54;;;;;;;4.68;3.58;;;;;;;;;;4269438;33;20042;-79
2023/07/07 03:25:20;;;;;;;7.57;3.58;;;;;;;;;;4269306;33;20029;-79
2023/07/07 03:27:47;;;;;;;4.95;3.03;;;;;;;;;;4268458;33;20064;-78
2023/07/07 03:30:13;;;;;;;4.78;3.10;;;;;;;;;;4236445;33;20319;-79
2023/07/07 03:32:40;;;;;;;4.70;2.58;;;;;;;;;;4243143;33;20064;-79
2023/07/07 03:35:07;;;;;;;11.48;4.40;;;;;;;;;;4247016;33;20058;-79
2023/07/07 03:37:33;;;;;;;9.60;4.22;;;;;;;;;;4246366;33;20054;-78
2023/07/07 03:39:59;;;;;;;7.95;3.78;;;;;;;;;;4243065;33;20031;-79
2023/07/07 03:42:26;;;;;;;9.88;4.18;;;;;;;;;;4244186;33;20054;-79
2023/07/07 03:44:52;;;;;;;11.10;4.10;;;;;;;;;;4238058;33;20359;-79
2023/07/07 03:47:19;;;;;;;7.85;4.45;;;;;;;;;;4238461;33;20453;-80
2023/07/07 03:49:46;;;;;;;8.20;3.75;;;;;;;;;;4236763;33;20046;-79
2023/07/07 03:52:13;;;;;;;7.20;3.47;;;;;;;;;;4238213;33;20428;-80
2023/07/07 03:54:40;;;;;;;10.50;3.58;;;;;;;;;;4237837;33;20039;-80
2023/07/07 03:57:06;;;;;;;5.05;2.60;;;;;;;;;;4238536;33;20498;-79
2023/07/07 03:59:33;;;;;;;4.20;2.62;;;;;;;;;;4237877;33;20043;-79
2023/07/07 04:02:01;;;;;;;5.15;3.00;;;;;;;;;;4261827;33;20448;-84
2023/07/07 04:04:28;;;;;;;5.43;3.10;;;;;;;;;;4268906;33;20045;-80
2023/07/07 04:06:58;;;;;;;8.55;4.50;;;;;;;;;;4268131;33;20058;-81
2023/07/07 04:09:24;;;;;;;6.18;3.08;;;;;;;;;;4267993;33;20084;-81
2023/07/07 04:11:51;;;;;;;3.22;2.78;;;;;;;;;;4265801;33;20084;-79
2023/07/07 04:14:18;;;;;;;9.32;2.78;;;;;;;;;;4268796;33;20075;-81
2023/07/07 04:16:44;;;;;;;6.05;3.10;;;;;;;;;;4269226;33;20053;-81
2023/07/07 04:19:10;;;;;;;4.78;3.33;;;;;;;;;;4268715;33;20087;-80
2023/07/07 04:21:37;;;;;;;6.65;3.00;;;;;;;;;;4268278;33;20045;-81
2023/07/07 04:24:03;;;;;;;12.90;2.53;;;;;;;;;;4266784;33;20093;-81
2023/07/07 04:26:31;;;;;;;4.32;2.25;;;;;;;;;;4269251;33;20284;-80
2023/07/07 04:28:58;;;;;;;5.70;3.30;;;;;;;;;;4268961;33;20041;-80
2023/07/07 04:31:25;;;;;;;3.58;2.70;;;;;;;;;;4251139;33;21040;-80
2023/07/07 04:33:52;;;;;;;3.70;2.50;;;;;;;;;;4250531;33;20447;-77
2023/07/07 04:36:18;;;;;;;12.43;2.60;;;;;;;;;;4250503;33;20129;-80
2023/07/07 04:38:44;;;;;;;4.95;2.10;;;;;;;;;;4251975;33;20038;-82
2023/07/07 04:41:15;;;;;;;5.65;2.40;;;;;;;;;;4251081;33;20052;-78
2023/07/07 04:43:42;;;;;;;2.90;2.67;;;;;;;;;;4221786;34;20324;-80
2023/07/07 04:46:10;;;;;;;3.35;2.60;;;;;;;;;;4222228;34;20481;-79
2023/07/07 04:48:37;;;;;;;3.45;2.72;;;;;;;;;;4222111;34;20039;-79
2023/07/07 04:51:06;;;;;;;5.93;3.00;;;;;;;;;;4222640;33;20063;-79
2023/07/07 04:53:32;;;;;;;7.05;3.10;;;;;;;;;;4223011;34;20481;-80
2023/07/07 04:56:00;;;;;;;7.53;2.97;;;;;;;;;;4222360;34;20084;-77
2023/07/07 04:58:26;;;;;;;13.38;4.50;;;;;;;;;;4220819;34;20047;-77
2023/07/07 05:01:09;;;;;;;3.55;2.60;;;;;;;;;;4219464;34;20038;-80
2023/07/07 05:03:36;;;;;;;3.05;2.65;;;;;;;;;;4207936;34;20030;-80
2023/07/07 05:06:09;;;;;;;7.70;4.12;;;;;;;;;;4207338;34;20094;-80
2023/07/07 05:08:36;;;;;;;6.18;3.80;;;;;;;;;;4208686;34;20055;-79
2023/07/07 05:11:03;;;;;;;4.22;2.97;;;;;;;;;;4209450;34;20035;-81
2023/07/07 05:13:29;;;;;;;5.45;2.95;;;;;;;;;;4190061;34;20039;-79
2023/07/07 05:15:59;;;;;;;5.82;2.97;;;;;;;;;;4207240;34;20068;-76
2023/07/07 05:18:25;;;;;;;13.80;2.87;;;;;;;;;;4209514;34;20379;-81
2023/07/07 05:20:51;;;;;;;4.62;2.70;;;;;;;;;;4209478;34;20476;-79
2023/07/07 05:23:17;;;;;;;5.28;2.85;;;;;;;;;;4208518;34;20086;-79
2023/07/07 05:25:44;;;;;;;2.58;2.37;;;;;;;;;;4213959;34;20047;-79
2023/07/07 05:28:10;;;;;;;2.37;2.17;;;;;;;;;;4222125;34;20043;-77
2023/07/07 05:30:40;;;;;;;2.35;2.08;;;;;;;;;;4222751;34;20055;-79
2023/07/07 05:33:06;;;;;;;6.78;2.60;;;;;;;;;;4220210;34;20043;-79
2023/07/07 05:35:32;;;;;;;3.60;2.30;;;;;;;;;;4213377;34;20058;-79
2023/07/07 05:38:00;;;;;;;5.37;2.25;;;;;;;;;;4217568;34;20050;-80
2023/07/07 05:40:27;;;;;;;5.97;2.53;;;;;;;;;;4223430;33;20126;-79
2023/07/07 05:42:53;;;;;;;14.77;2.40;;;;;;;;;;4236925;33;20058;-79
2023/07/07 05:45:21;;;;;;;2.87;2.10;;;;;;;;;;4250710;33;20056;-81
2023/07/07 05:47:47;;;;;;;5.85;2.00;;;;;;;;;;4251881;33;20437;-80
2023/07/07 05:50:13;;;;;;;4.15;2.37;;;;;;;;;;4253340;33;20050;-80
2023/07/07 05:52:39;;;;;;;5.82;2.53;;;;;;;;;;4251676;33;20058;-79
2023/07/07 05:55:06;;;;;;;4.15;2.42;;;;;;;;;;4253247;33;20392;-81
2023/07/07 05:57:32;;;;;;;6.70;2.62;;;;;;;;;;4253722;33;20400;-79
2023/07/07 05:59:58;;;;;;;5.10;2.53;;;;;;;;;;4240343;33;20551;-79
2023/07/07 06:02:24;;;;;;;11.20;3.55;;;;;;;;;;4251984;33;20050;-79
2023/07/07 06:04:50;;;;;;;14.35;2.90;;;;;;;;;;4254840;33;20034;-82
2023/07/07 06:07:16;;;;;;;8.93;2.62;;;;;;;;;;4266064;33;20285;-80
2023/07/07 06:09:48;;;;;;;2.75;2.40;;;;;;;;;;4266680;33;20412;-80
2023/07/07 06:12:15;;;;;;;3.22;2.08;;;;;;;;;;4268325;33;20053;-81
2023/07/07 06:14:41;;;;;;;2.75;2.12;;;;;;;;;;4267085;33;20045;-78
2023/07/07 06:17:07;;;;;;;4.57;2.17;;;;;;;;;;4266891;33;20064;-80
2023/07/07 06:19:33;;;;;;;2.40;2.20;;;;;;;;;;4268073;33;20054;-80
2023/07/07 06:21:59;;;;;;;2.53;1.85;;;;;;;;;;4267955;33;20561;-81
2023/07/07 06:24:25;;;;;;;11.25;2.03;;;;;;;;;;4266672;33;20123;-79
2023/07/07 06:26:51;;;;;;;2.25;2.05;;;;;;;;;;4252863;33;20039;-80
2023/07/07 06:29:17;;;;;;;9.57;2.15;;;;;;;;;;4251632;33;20519;-80
2023/07/07 06:31:43;;;;;;;1.95;1.75;;;;;;;;;;4252773;33;20105;-79
2023/07/07 06:34:10;;;;;;;1.83;1.73;;;;;;;;;;4251745;33;20058;-79
2023/07/07 06:36:36;;;;;;;1.98;1.85;;;;;;;;;;4252619;33;20102;-80
2023/07/07 06:39:02;;;;;;;2.30;2.10;;;;;;;;;;4252669;33;20072;-82
2023/07/07 06:41:28;;;;;;;6.00;1.83;;;;;;;;;;4252794;33;20063;-80
2023/07/07 06:43:56;;;;;;;5.25;1.90;;;;;;;;;;4253473;33;20387;-80
2023/07/07 06:46:24;;;;;;;3.20;2.12;;;;;;;;;;4252756;33;20094;-79
2023/07/07 06:48:51;;;;;;;2.83;2.15;;;;;;;;;;4251434;33;20054;-79
2023/07/07 06:51:18;;;;;;;3.37;2.10;;;;;;;;;;4248663;33;20034;-78
2023/07/07 06:53:45;;;;;;;5.57;2.00;;;;;;;;;;4248044;33;20361;-79
2023/07/07 06:56:11;;;;;;;4.72;1.92;;;;;;;;;;4245540;33;20046;-80
2023/07/07 06:58:38;;;;;;;1.60;1.50;;;;;;;;;;4243404;33;20090;-80
2023/07/07 07:01:04;;;;;;;2.00;1.62;;;;;;;;;;4243515;33;20046;-78
2023/07/07 07:03:34;;;;;;;2.67;1.40;;;;;;;;;;4238721;33;20521;-80
2023/07/07 07:06:00;;;;;;;9.15;1.98;;;;;;;;;;4240461;33;20086;-80
2023/07/07 07:08:26;;;;;;;3.40;1.98;;;;;;;;;;4251962;33;20437;-83
2023/07/07 07:10:52;;;;;;;2.08;1.62;;;;;;;;;;4253065;33;20083;-78
2023/07/07 07:13:19;;;;;;;4.93;1.90;;;;;;;;;;4249266;33;20050;-78
2023/07/07 07:15:45;;;;;;;2.53;1.80;;;;;;;;;;4252545;33;20031;-79
2023/07/07 07:18:12;;;;;;;5.60;2.05;;;;;;;;;;4252580;33;20079;-79
2023/07/07 07:20:39;;;;;;;2.17;1.98;;;;;;;;;;4252866;33;20060;-79
2023/07/07 07:23:05;;;;;;;16.77;2.10;;;;;;;;;;4252645;33;20050;-78
2023/07/07 07:25:31;;;;;;;3.37;1.80;;;;;;;;;;4250802;33;20030;-78
2023/07/07 07:27:57;;;;;;;3.70;1.92;;;;;;;;;;4252903;33;20111;-80
2023/07/07 07:30:23;;;;;;;2.90;1.90;;;;;;;;;;4252643;33;20046;-79
2023/07/07 07:32:50;;;;;;;4.30;1.85;;;;;;;;;;4262824;33;20094;-78
2023/07/07 07:35:16;;;;;;;3.95;1.95;;;;;;;;;;4265485;33;20101;-79
2023/07/07 07:37:42;;;;;;;6.93;2.25;;;;;;;;;;4261950;33;20469;-78
2023/07/07 07:40:08;;;;;;;3.92;1.70;;;;;;;;;;4260253;33;20107;-80
2023/07/07 07:42:34;;;;;;;2.15;1.75;;;;;;;;;;4261483;33;20054;-78
2023/07/07 07:45:00;;;;;;;2.08;1.62;;;;;;;;;;4261013;33;20033;-79
2023/07/07 07:47:27;;;;;;;1.50;1.40;;;;;;;;;;4245562;33;20042;-79
2023/07/07 07:49:53;;;;;;;2.80;1.90;;;;;;;;;;4242898;33;20094;-79
2023/07/07 07:52:19;;;;;;;4.35;2.10;;;;;;;;;;4244303;33;20058;-79
2023/07/07 07:54:45;;;;;;;3.12;1.65;;;;;;;;;;4244504;33;20068;-79
2023/07/07 07:57:11;;;;;;;3.58;2.33;;;;;;;;;;4244404;33;20064;-79
2023/07/07 07:59:37;;;;;;;1.90;1.77;;;;;;;;;;4246133;33;20077;-79
2023/07/07 08:02:04;;;;;;;5.32;1.73;;;;;;;;;;4247779;33;20058;-78
2023/07/07 08:04:30;;;;;;;3.50;2.22;;;;;;;;;;4245716;33;20092;-78
2023/07/07 08:07:03;;;;;;;3.20;1.80;;;;;;;;;;4248439;33;20109;-79
2023/07/07 08:09:29;;;;;;;2.03;1.60;;;;;;;;;;4248603;33;20034;-78
2023/07/07 08:11:57;;;;;;;1.98;1.87;;;;;;;;;;4247731;33;20058;-78
2023/07/07 08:14:27;;;;;;;3.25;1.62;;;;;;;;;;4245614;33;20120;-79
2023/07/07 08:16:53;;;;;;;4.05;1.60;;;;;;;;;;4244206;33;20068;-78
2023/07/07 08:19:19;;;;;;;1.35;1.23;;;;;;;;;;4249321;33;20038;-78
2023/07/07 08:21:46;;;;;;;2.70;1.17;;;;;;;;;;4258840;33;20045;-78
2023/07/07 08:24:12;;;;;;;1.85;1.60;;;;;;;;;;4264588;33;20057;-78
2023/07/07 08:26:39;;;;;;;9.20;2.70;;;;;;;;;;4264040;33;20399;-78
2023/07/07 08:29:04;;;;;;;4.75;2.05;;;;;;;;;;4261936;33;20064;-78
2023/07/07 08:31:31;;;;;;;3.08;2.50;;;;;;;;;;4265338;33;20049;-79
2023/07/07 08:33:57;;;;;;;2.28;1.85;;;;;;;;;;4260459;33;20046;-78
2023/07/07 08:36:23;;;;;;;3.17;1.62;;;;;;;;;;4262099;33;20098;-77
2023/07/07 08:38:49;;;;;;;2.15;1.95;;;;;;;;;;4258675;33;20037;-77
2023/07/07 08:41:16;;;;;;;1.60;1.50;;;;;;;;;;4261856;33;20391;-77
2023/07/07 08:43:42;;;;;;;1.98;1.80;;;;;;;;;;4265220;33;20101;-76
2023/07/07 08:46:10;;;;;;;6.32;2.50;;;;;;;;;;4247314;33;20120;-77
2023/07/07 08:48:44;;;;;;;5.65;1.40;;;;;;;;;;4255640;33;20063;-77
2023/07/07 08:51:15;;;;;;;1.80;1.67;;;;;;;;;;4256262;33;20057;-77
2023/07/07 08:54:17;;;;;;;3.92;1.52;;;;;;;;;;4247433;33;20137;-77
2023/07/07 08:56:45;;;;;;;5.50;1.65;;;;;;;;;;4205676;34;20055;-78
2023/07/07 08:59:17;;;;;;;1.90;1.62;;;;;;;;;;4206842;34;20061;-78
2023/07/07 09:01:58;;;;;;;3.90;2.53;;;;;;;;;;4207667;34;20062;-79
2023/07/07 09:04:33;;;;;;;5.20;2.53;;;;;;;;;;4207226;34;20094;-78
2023/07/07 09:07:18;;;;;;;1.85;1.40;;;;;;;;;;4206262;34;20453;-78
2023/07/07 09:10:02;;;;;;;2.20;1.60;;;;;;;;;;4208034;34;20442;-78
2023/07/07 09:12:38;;;;;;;5.70;1.80;;;;;;;;;;4206182;34;20153;-76
2023/07/07 09:15:11;;;;;;;4.07;1.55;;;;;;;;;;4207949;34;20052;-78
2023/07/07 09:17:43;;;;;;;2.12;1.23;;;;;;;;;;4216674;34;20192;-78
2023/07/07 09:20:11;;;;;;;5.95;3.92;;;;;;;;;;4222400;34;20120;-78
2023/07/07 09:22:40;;;;;;;5.22;2.05;;;;;;;;;;4219325;34;20091;-77
2023/07/07 09:25:24;;;;;;;1.40;1.23;;;;;;;;;;4221556;33;20077;-77
2023/07/07 09:28:01;;;;;;;4.05;1.50;;;;;;;;;;4222833;34;20071;-76
2023/07/07 09:30:44;;;;;;;1.62;1.52;;;;;;;;;;4236940;33;20061;-78
2023/07/07 09:33:12;;;;;;;1.95;1.20;;;;;;;;;;4256881;33;20050;-78
2023/07/07 09:35:41;;;;;;;1.60;1.50;;;;;;;;;;4257889;33;20056;-77
2023/07/07 09:38:16;;;;;;;5.07;1.83;;;;;;;;;;4272681;33;20118;-77
2023/07/07 09:40:54;;;;;;;1.58;1.27;;;;;;;;;;4274909;33;20033;-78
2023/07/07 09:43:40;;;;;;;1.62;1.52;;;;;;;;;;4274172;33;20042;-78
2023/07/07 09:46:07;;;;;;;3.03;1.40;;;;;;;;;;4226643;33;20038;-76
2023/07/07 09:48:37;;;;;;;6.30;1.58;;;;;;;;;;4238463;33;20067;-76
2023/07/07 09:51:09;;;;;;;2.87;1.15;;;;;;;;;;4238067;33;20076;-77
2023/07/07 09:53:37;;;;;;;1.95;1.62;;;;;;;;;;4223943;34;20081;-78
2023/07/07 09:56:04;;;;;;;2.10;1.23;;;;;;;;;;4225597;33;20045;-77
2023/07/07 09:58:50;;;;;;;3.22;1.48;;;;;;;;;;4221517;33;20038;-76
2023/07/07 10:01:17;;;;;;;16.02;2.35;;;;;;;;;;4220134;34;20077;-76
2023/07/07 10:03:45;;;;;;;5.15;1.48;;;;;;;;;;4223473;34;20120;-76
2023/07/07 10:06:19;;;;;;;3.62;1.25;;;;;;;;;;4222280;34;20035;-76
2023/07/07 10:08:46;;;;;;;1.40;1.30;;;;;;;;;;4219331;34;20042;-76
2023/07/07 10:11:11;;;;;;;3.60;1.17;;;;;;;;;;4217815;33;20077;-77
2023/07/07 10:13:38;;;;;;;3.80;1.48;;;;;;;;;;4223550;34;20934;-78
2023/07/07 10:16:05;;;;;;;3.65;1.50;;;;;;;;;;4222642;34;20118;-77
2023/07/07 10:18:32;;;;;;;2.65;1.12;;;;;;;;;;4221545;34;20050;-79
2023/07/07 10:21:00;;;;;;;2.25;1.80;;;;;;;;;;4224180;34;20102;-78
2023/07/07 10:23:27;;;;;;;3.35;1.40;;;;;;;;;;4223822;34;20554;-79
2023/07/07 10:25:54;;;;;;;1.20;1.20;;;;;;;;;;4217909;34;20038;-79
2023/07/07 10:28:22;;;;;;;1.30;1.30;;;;;;;;;;4217510;34;20050;-79
2023/07/07 10:30:48;;;;;;;1.67;1.45;;;;;;;;;;4217081;34;20112;-78
2023/07/07 10:33:20;;;;;;;1.67;1.50;;;;;;;;;;4202240;34;20063;-79
2023/07/07 10:35:46;;;;;;;0.85;0.85;;;;;;;;;;4204150;34;20036;-76
2023/07/07 10:38:12;;;;;;;1.52;1.10;;;;;;;;;;4196928;34;20076;-77
2023/07/07 10:40:41;;;;;;;3.08;1.33;;;;;;;;;;4199734;34;20086;-77
2023/07/07 10:43:11;;;;;;;3.47;1.42;;;;;;;;;;4202765;34;20050;-79
2023/07/07 10:45:37;;;;;;;4.00;1.20;;;;;;;;;;4217294;34;20062;-78
2023/07/07 10:48:10;;;;;;;1.48;1.23;;;;;;;;;;4218250;34;20051;-77
2023/07/07 10:50:40;;;;;;;3.90;1.75;;;;;;;;;;4214892;34;20031;-80
2023/07/07 10:53:23;;;;;;;6.03;1.48;;;;;;;;;;4208621;34;20110;-78
2023/07/07 10:55:49;;;;;;;1.45;1.33;;;;;;;;;;4187813;34;20039;-76
2023/07/07 10:58:25;;;;;;;1.27;1.20;;;;;;;;;;4202659;34;20059;-78
2023/07/07 11:00:54;;;;;;;1.00;1.00;;;;;;;;;;4345279;28;20081;-77
2023/07/07 11:03:39;;;;;;;4.45;2.58;;;;;;;;;;4219350;33;20365;-77
2023/07/07 11:06:16;;;;;;;1.50;1.40;;;;;;;;;;4223174;34;20046;-79
2023/07/07 11:08:49;;;;;;;2.08;1.65;;;;;;;;;;4221313;34;20393;-78
2023/07/07 11:11:16;;;;;;;2.53;1.80;;;;;;;;;;4223229;34;20092;-79
2023/07/07 11:13:49;;;;;;;1.92;1.50;;;;;;;;;;4222770;34;20093;-80
2023/07/07 11:16:37;;;;;;;2.05;1.15;;;;;;;;;;4209260;34;20495;-79
2023/07/07 11:19:07;;;;;;;2.22;1.17;;;;;;;;;;4210430;34;20072;-79
2023/07/07 11:21:51;;;;;;;3.37;1.52;;;;;;;;;;4211262;34;20076;-79
2023/07/07 11:24:27;;;;;;;2.80;1.27;;;;;;;;;;4223224;33;20051;-78
2023/07/07 11:26:53;;;;;;;1.55;1.45;;;;;;;;;;4216534;34;20039;-79
2023/07/07 11:29:29;;;;;;;1.50;1.20;;;;;;;;;;4211155;34;20042;-78
2023/07/07 11:31:55;;;;;;;2.25;1.08;;;;;;;;;;4207775;34;20035;-77
2023/07/07 11:34:21;;;;;;;2.90;1.40;;;;;;;;;;4210849;34;20055;-79
2023/07/07 11:36:52;;;;;;;1.55;1.55;;;;;;;;;;4210022;34;20073;-78
2023/07/07 11:39:21;;;;;;;7.22;1.23;;;;;;;;;;4210776;34;20055;-79
2023/07/07 11:42:11;;;;;;;4.68;1.00;;;;;;;;;;4209296;34;20091;-76
2023/07/07 11:44:46;;;;;;;1.60;1.50;;;;;;;;;;4210369;34;20102;-78
2023/07/07 11:47:33;;;;;;;6.53;0.93;;;;;;;;;;4216361;34;20093;-79
2023/07/07 11:49:59;;;;;;;1.30;1.27;;;;;;;;;;4224203;34;20058;-79
2023/07/07 11:52:37;;;;;;;2.75;1.35;;;;;;;;;;4223355;33;20397;-78
2023/07/07 11:55:22;;;;;;;2.50;1.55;;;;;;;;;;4222782;33;20043;-77
2023/07/07 11:57:49;;;;;;;1.10;1.10;;;;;;;;;;4224043;34;20047;-78
2023/07/07 12:00:33;;;;;;;2.62;1.27;;;;;;;;;;4223455;33;20076;-79
2023/07/07 12:03:18;;;;;;;1.40;1.40;;;;;;;;;;4222061;34;20468;-79
2023/07/07 12:05:45;;;;;;;2.65;1.30;;;;;;;;;;4224216;34;20072;-79
2023/07/07 12:08:15;;;;;;;2.10;1.25;;;;;;;;;;4222713;34;20073;-79
2023/07/07 12:10:43;;;;;;;1.70;1.17;;;;;;;;;;4221297;34;20545;-79
2023/07/07 12:13:10;;;;;;;1.95;1.33;;;;;;;;;;4238158;33;20038;-79
2023/07/07 12:15:43;;;;;;;1.52;1.20;;;;;;;;;;4222768;34;20055;-78
2023/07/07 12:18:14;;;;;;;3.60;1.17;;;;;;;;;;4224313;34;20047;-79
2023/07/07 12:20:45;;;;;;;2.72;1.40;;;;;;;;;;4221965;34;20050;-77
2023/07/07 12:23:16;;;;;;;2.83;1.30;;;;;;;;;;4211007;34;20084;-79
2023/07/07 12:25:43;;;;;;;1.12;1.12;;;;;;;;;;4209888;34;20063;-79
2023/07/07 12:28:10;;;;;;;2.15;1.10;;;;;;;;;;4212613;34;20035;-80
2023/07/07 12:30:38;;;;;;;1.45;1.35;;;;;;;;;;4222074;34;20051;-78
2023/07/07 12:33:05;;;;;;;10.80;3.35;;;;;;;;;;4223758;34;20072;-80
2023/07/07 12:35:43;;;;;;;1.20;1.20;;;;;;;;;;4223779;34;20055;-78
2023/07/07 12:38:19;;;;;;;1.50;1.40;;;;;;;;;;4224080;34;20174;-78
2023/07/07 12:40:46;;;;;;;3.95;1.52;;;;;;;;;;4221411;34;20076;-78
2023/07/07 12:43:39;;;;;;;2.40;1.25;;;;;;;;;;4224061;33;20295;-78
2023/07/07 12:46:15;;;;;;;2.40;1.67;;;;;;;;;;4224247;33;20068;-76
2023/07/07 12:48:43;;;;;;;1.62;1.52;;;;;;;;;;4241939;33;20447;-77
2023/07/07 12:51:10;;;;;;;5.25;1.65;;;;;;;;;;4238146;33;20054;-79
2023/07/07 12:53:46;;;;;;;1.70;1.10;;;;;;;;;;4238931;33;20043;-79
2023/07/07 12:56:16;;;;;;;1.08;1.08;;;;;;;;;;4236400;33;20037;-78
2023/07/07 12:58:47;;;;;;;5.95;1.83;;;;;;;;;;4239434;33;20077;-78
2023/07/07 13:01:13;;;;;;;1.23;1.12;;;;;;;;;;4237661;33;20117;-79
2023/07/07 13:03:59;;;;;;;2.30;1.50;;;;;;;;;;4238467;33;20038;-78
2023/07/07 13:06:36;;;;;;;1.67;1.40;;;;;;;;;;4237372;33;20054;-78
2023/07/07 13:09:20;;;;;;;0.95;0.95;;;;;;;;;;4238381;33;20397;-78
2023/07/07 13:11:57;;;;;;;3.83;1.45;;;;;;;;;;4237566;33;20346;-78
2023/07/07 13:14:35;;;;;;;1.85;1.73;;;;;;;;;;4239067;33;20074;-78
2023/07/07 13:17:04;;;;;;;1.30;1.20;;;;;;;;;;4243759;33;20469;-77
2023/07/07 13:19:31;;;;;;;4.10;1.60;;;;;;;;;;4249070;33;20135;-78
2023/07/07 13:21:59;;;;;;;1.23;1.12;;;;;;;;;;4250312;33;20117;-78
2023/07/07 13:24:28;;;;;;;1.33;1.30;;;;;;;;;;4245231;33;20072;-78
2023/07/07 13:26:55;;;;;;;1.58;1.20;;;;;;;;;;4242082;33;20060;-76
2023/07/07 13:29:25;;;;;;;3.15;1.17;;;;;;;;;;4252755;33;20118;-78
2023/07/07 13:31:51;;;;;;;1.17;1.17;;;;;;;;;;4254172;33;20042;-78
2023/07/07 13:34:19;;;;;;;1.40;1.35;;;;;;;;;;4256022;33;20081;-78
2023/07/07 13:36:47;;;;;;;1.98;1.00;;;;;;;;;;4255070;33;20058;-79
2023/07/07 13:39:14;;;;;;;1.73;1.42;;;;;;;;;;4253628;33;20534;-78
2023/07/07 13:41:48;;;;;;;3.75;1.08;;;;;;;;;;4255911;33;20084;-79
2023/07/07 13:44:16;;;;;;;1.87;1.42;;;;;;;;;;4245920;33;20080;-78
2023/07/07 13:46:44;;;;;;;3.33;1.52;;;;;;;;;;4253923;33;20402;-77
2023/07/07 13:49:13;;;;;;;1.70;1.60;;;;;;;;;;4252775;33;20043;-77
2023/07/07 13:51:41;;;;;;;1.58;1.48;;;;;;;;;;4254806;33;20082;-78
2023/07/07 13:54:09;;;;;;;5.62;1.25;;;;;;;;;;4254234;33;20043;-77
2023/07/07 13:56:39;;;;;;;3.03;1.70;;;;;;;;;;4253567;33;20080;-78
2023/07/07 13:59:18;;;;;;;1.40;1.40;;;;;;;;;;4253883;33;20129;-77
2023/07/07 14:01:44;;;;;;;1.30;1.05;;;;;;;;;;4257741;33;20079;-78
2023/07/07 14:04:14;;;;;;;1.25;1.20;;;;;;;;;;4257613;33;20092;-78
2023/07/07 14:06:41;;;;;;;1.27;1.20;;;;;;;;;;4255399;33;20055;-78
2023/07/07 14:09:39;;;;;;;1.35;1.23;;;;;;;;;;4253330;33;20106;-76
2023/07/07 14:12:08;;;;;;;1.20;1.20;;;;;;;;;;4211517;34;20054;-77
2023/07/07 14:14:34;;;;;;;2.47;1.30;;;;;;;;;;4206848;34;20031;-77
2023/07/07 14:17:03;;;;;;;1.30;1.20;;;;;;;;;;4210320;34;20051;-78
2023/07/07 14:19:29;;;;;;;3.80;1.60;;;;;;;;;;4209447;34;20035;-78
2023/07/07 14:21:56;;;;;;;2.72;1.33;;;;;;;;;;4209893;34;20047;-78
2023/07/07 14:24:26;;;;;;;1.92;1.50;;;;;;;;;;4211711;34;20032;-78
2023/07/07 14:26:53;;;;;;;3.57;0.93;;;;;;;;;;4211421;34;20035;-78
2023/07/07 14:29:26;;;;;;;1.12;1.10;;;;;;;;;;4212978;34;20104;-78
2023/07/07 14:31:56;;;;;;;1.10;1.10;;;;;;;;;;4201136;34;20055;-78
2023/07/07 14:34:22;;;;;;;2.72;1.10;;;;;;;;;;4211183;34;20510;-77
2023/07/07 14:36:49;;;;;;;2.90;1.37;;;;;;;;;;4211039;34;20051;-80
2023/07/07 14:39:24;;;;;;;3.28;1.30;;;;;;;;;;4212500;34;20039;-79
2023/07/07 14:41:52;;;;;;;2.37;1.20;;;;;;;;;;4212327;34;20069;-78
2023/07/07 14:44:36;;;;;;;3.42;1.10;;;;;;;;;;4196578;34;20517;-77
2023/07/07 14:47:03;;;;;;;1.20;1.10;;;;;;;;;;4206779;33;20057;-77
2023/07/07 14:49:29;;;;;;;1.83;1.08;;;;;;;;;;4243057;33;20060;-77
2023/07/07 14:51:55;;;;;;;1.87;1.77;;;;;;;;;;4241309;33;20072;-78
2023/07/07 14:54:22;;;;;;;1.85;1.58;;;;;;;;;;4238960;33;20039;-78
2023/07/07 14:56:52;;;;;;;1.37;1.10;;;;;;;;;;4238837;33;20065;-78
2023/07/07 14:59:25;;;;;;;4.68;1.48;;;;;;;;;;4238722;33;20115;-78
2023/07/07 15:02:02;;;;;;;7.85;1.98;;;;;;;;;;4238333;33;20073;-77
2023/07/07 15:04:30;;;;;;;2.25;1.37;;;;;;;;;;4239459;33;20364;-78
2023/07/07 15:06:56;;;;;;;2.30;1.35;;;;;;;;;;4238898;33;20076;-78
2023/07/07 15:09:23;;;;;;;1.00;1.00;;;;;;;;;;4238071;33;20039;-78
2023/07/07 15:11:50;;;;;;;1.33;1.33;;;;;;;;;;4238672;33;20563;-78
2023/07/07 15:14:16;;;;;;;4.37;1.40;;;;;;;;;;4238854;33;20043;-79
2023/07/07 15:16:43;;;;;;;1.58;1.58;;;;;;;;;;4227769;34;20058;-78
2023/07/07 15:19:17;;;;;;;6.43;1.40;;;;;;;;;;4234063;34;20519;-78
2023/07/07 15:21:43;;;;;;;9.70;1.37;;;;;;;;;;4243276;33;20097;-78
2023/07/07 15:24:09;;;;;;;4.12;1.40;;;;;;;;;;4246893;33;20125;-79
2023/07/07 15:26:36;;;;;;;2.60;1.67;;;;;;;;;;4249142;33;20314;-77
2023/07/07 15:29:03;;;;;;;1.92;1.35;;;;;;;;;;4240787;33;20068;-78
2023/07/07 15:31:29;;;;;;;1.70;1.60;;;;;;;;;;4239393;33;20054;-78
2023/07/07 15:33:55;;;;;;;5.28;1.30;;;;;;;;;;4237298;33;20106;-77
2023/07/07 15:36:22;;;;;;;1.35;1.35;;;;;;;;;;4236833;33;20408;-78
2023/07/07 15:38:49;;;;;;;2.95;1.73;;;;;;;;;;4225011;34;20085;-78
2023/07/07 15:41:17;;;;;;;1.80;1.70;;;;;;;;;;4212440;34;20091;-78
2023/07/07 15:43:43;;;;;;;1.45;1.45;;;;;;;;;;4211214;34;20044;-79
2023/07/07 15:46:11;;;;;;;2.37;1.90;;;;;;;;;;4210724;34;20106;-77
2023/07/07 15:48:37;;;;;;;5.03;1.40;;;;;;;;;;4221962;34;20440;-79
2023/07/07 15:51:03;;;;;;;1.37;1.37;;;;;;;;;;4223842;34;20054;-78
2023/07/07 15:53:29;;;;;;;5.72;1.55;;;;;;;;;;4231032;33;20106;-79
2023/07/07 15:55:56;;;;;;;1.77;1.67;;;;;;;;;;4227116;33;20047;-78
2023/07/07 15:58:22;;;;;;;1.30;1.30;;;;;;;;;;4219147;34;20066;-78
2023/07/07 16:00:48;;;;;;;1.23;1.23;;;;;;;;;;4213308;34;20101;-78
2023/07/07 16:03:17;;;;;;;1.77;1.10;;;;;;;;;;4221176;34;20466;-79
2023/07/07 16:05:43;;;;;;;5.72;1.52;;;;;;;;;;4223164;34;20126;-77
2023/07/07 16:08:10;;;;;;;3.55;1.70;;;;;;;;;;4216445;34;20129;-77
2023/07/07 16:10:38;;;;;;;1.50;1.50;;;;;;;;;;4221110;33;20065;-78
2023/07/07 16:13:04;;;;;;;3.75;1.77;;;;;;;;;;4224076;34;20055;-80
2023/07/07 16:15:31;;;;;;;1.62;1.50;;;;;;;;;;4195506;34;20048;-79
2023/07/07 16:17:57;;;;;;;5.57;1.77;;;;;;;;;;4195361;34;20355;-78
2023/07/07 16:20:26;;;;;;;3.97;1.50;;;;;;;;;;4202956;34;20379;-78
2023/07/07 16:22:52;;;;;;;1.62;1.02;;;;;;;;;;4206246;34;20070;-79
2023/07/07 16:25:19;;;;;;;1.40;1.17;;;;;;;;;;4206453;34;20089;-79
2023/07/07 16:27:46;;;;;;;5.07;1.40;;;;;;;;;;4206421;34;20520;-79
2023/07/07 16:30:18;;;;;;;1.55;1.48;;;;;;;;;;4218883;33;20046;-78
2023/07/07 16:32:44;;;;;;;2.00;1.42;;;;;;;;;;4221093;34;20047;-78
2023/07/07 16:35:11;;;;;;;1.80;1.70;;;;;;;;;;4221221;33;20498;-78
2023/07/07 16:37:39;;;;;;;4.20;1.35;;;;;;;;;;4223031;33;20233;-79
2023/07/07 16:40:17;;;;;;;2.35;1.30;;;;;;;;;;4223371;33;20102;-78
2023/07/07 16:42:43;;;;;;;1.85;1.30;;;;;;;;;;4222526;34;20102;-78
2023/07/07 16:45:09;;;;;;;3.65;1.40;;;;;;;;;;4221932;33;20121;-79
2023/07/07 16:47:35;;;;;;;1.33;1.33;;;;;;;;;;4234886;33;20054;-78
2023/07/07 16:50:09;;;;;;;7.43;1.45;;;;;;;;;;4237189;33;20072;-78
2023/07/07 16:52:35;;;;;;;1.30;1.30;;;;;;;;;;4199734;34;20915;-78
2023/07/07 16:55:01;;;;;;;4.47;1.40;;;;;;;;;;4197467;34;20109;-77